sensor_id;sensor_type;location;lat;lon;timestamp;temperature;humidity
68026;SHT31;54819;48.030;14.710;2022-10-16T00:01:37;12.37;92.20
68026;SHT31;54819;48.030;14.710;2022-10-16T00:04:05;12.39;92.24
68026;SHT31;54819;48.030;14.710;2022-10-16T00:06:32;12.38;92.23
68026;SHT31;54819;48.030;14.710;2022-10-16T00:08:59;12.40;92.22
68026;SHT31;54819;48.030;14.710;2022-10-16T00:11:28;12.42;92.20
68026;SHT31;54819;48.030;14.710;2022-10-16T00:14:00;12.42;92.10
68026;SHT31;54819;48.030;14.710;2022-10-16T00:16:30;12.43;92.01
68026;SHT31;54819;48.030;14.710;2022-10-16T00:18:57;12.42;92.01
68026;SHT31;54819;48.030;14.710;2022-10-16T00:21:26;12.38;92.30
68026;SHT31;54819;48.030;14.710;2022-10-16T00:23:57;12.36;92.21
68026;SHT31;54819;48.030;14.710;2022-10-16T00:26:33;12.36;91.75
68026;SHT31;54819;48.030;14.710;2022-10-16T00:29:03;12.26;92.69
68026;SHT31;54819;48.030;14.710;2022-10-16T00:31:31;12.24;92.50
68026;SHT31;54819;48.030;14.710;2022-10-16T00:33:59;12.25;92.30
68026;SHT31;54819;48.030;14.710;2022-10-16T00:36:26;12.22;92.08
68026;SHT31;54819;48.030;14.710;2022-10-16T00:38:55;12.18;92.21
68026;SHT31;54819;48.030;14.710;2022-10-16T00:41:30;12.16;92.35
68026;SHT31;54819;48.030;14.710;2022-10-16T00:43:59;12.11;92.32
68026;SHT31;54819;48.030;14.710;2022-10-16T00:46:35;12.02;92.83
68026;SHT31;54819;48.030;14.710;2022-10-16T00:51:42;11.95;92.29
68026;SHT31;54819;48.030;14.710;2022-10-16T00:54:32;11.94;92.20
68026;SHT31;54819;48.030;14.710;2022-10-16T00:57:01;11.97;92.12
68026;SHT31;54819;48.030;14.710;2022-10-16T00:59:35;11.99;92.02
68026;SHT31;54819;48.030;14.710;2022-10-16T01:02:07;12.00;91.96
68026;SHT31;54819;48.030;14.710;2022-10-16T01:04:39;12.00;91.90
68026;SHT31;54819;48.030;14.710;2022-10-16T01:12:45;11.96;91.74
68026;SHT31;54819;48.030;14.710;2022-10-16T01:18:05;11.98;91.70
68026;SHT31;54819;48.030;14.710;2022-10-16T01:20:48;12.01;91.64
68026;SHT31;54819;48.030;14.710;2022-10-16T01:28:53;12.03;91.63
68026;SHT31;54819;48.030;14.710;2022-10-16T01:31:33;12.04;91.56
68026;SHT31;54819;48.030;14.710;2022-10-16T01:34:07;12.04;91.51
68026;SHT31;54819;48.030;14.710;2022-10-16T01:36:41;12.05;91.49
68026;SHT31;54819;48.030;14.710;2022-10-16T01:39:18;12.05;91.39
68026;SHT31;54819;48.030;14.710;2022-10-16T01:41:58;12.05;91.30
68026;SHT31;54819;48.030;14.710;2022-10-16T01:44:39;12.04;91.24
68026;SHT31;54819;48.030;14.710;2022-10-16T01:47:08;12.05;91.23
68026;SHT31;54819;48.030;14.710;2022-10-16T01:49:39;12.07;91.28
68026;SHT31;54819;48.030;14.710;2022-10-16T01:52:11;12.09;91.23
68026;SHT31;54819;48.030;14.710;2022-10-16T01:54:45;12.12;91.21
68026;SHT31;54819;48.030;14.710;2022-10-16T01:57:15;12.14;91.20
68026;SHT31;54819;48.030;14.710;2022-10-16T01:59:49;12.15;91.15
68026;SHT31;54819;48.030;14.710;2022-10-16T02:02:23;12.13;91.14
68026;SHT31;54819;48.030;14.710;2022-10-16T02:04:58;12.13;91.13
68026;SHT31;54819;48.030;14.710;2022-10-16T02:07:40;12.13;91.09
68026;SHT31;54819;48.030;14.710;2022-10-16T02:10:08;12.10;90.98
68026;SHT31;54819;48.030;14.710;2022-10-16T02:12:37;12.08;90.88
68026;SHT31;54819;48.030;14.710;2022-10-16T02:15:10;12.04;90.86
68026;SHT31;54819;48.030;14.710;2022-10-16T02:17:37;11.93;91.00
68026;SHT31;54819;48.030;14.710;2022-10-16T02:20:04;11.83;91.27
68026;SHT31;54819;48.030;14.710;2022-10-16T02:22:34;11.78;91.30
68026;SHT31;54819;48.030;14.710;2022-10-16T02:25:06;11.74;91.32
68026;SHT31;54819;48.030;14.710;2022-10-16T02:27:53;11.76;91.30
68026;SHT31;54819;48.030;14.710;2022-10-16T02:30:40;11.74;91.28
68026;SHT31;54819;48.030;14.710;2022-10-16T02:33:11;11.72;91.27
68026;SHT31;54819;48.030;14.710;2022-10-16T02:35:41;11.71;91.23
68026;SHT31;54819;48.030;14.710;2022-10-16T02:38:11;11.67;91.22
68026;SHT31;54819;48.030;14.710;2022-10-16T02:40:41;11.64;91.11
68026;SHT31;54819;48.030;14.710;2022-10-16T02:43:09;11.58;91.23
68026;SHT31;54819;48.030;14.710;2022-10-16T02:45:37;11.53;91.30
68026;SHT31;54819;48.030;14.710;2022-10-16T02:48:05;11.48;91.42
68026;SHT31;54819;48.030;14.710;2022-10-16T02:50:32;11.45;91.48
68026;SHT31;54819;48.030;14.710;2022-10-16T02:52:59;11.46;91.56
68026;SHT31;54819;48.030;14.710;2022-10-16T02:55:27;11.46;91.60
68026;SHT31;54819;48.030;14.710;2022-10-16T02:57:54;11.47;91.51
68026;SHT31;54819;48.030;14.710;2022-10-16T03:00:21;11.42;91.67
68026;SHT31;54819;48.030;14.710;2022-10-16T03:02:48;11.40;91.71
68026;SHT31;54819;48.030;14.710;2022-10-16T03:05:15;11.39;91.69
68026;SHT31;54819;48.030;14.710;2022-10-16T03:07:43;11.32;91.62
68026;SHT31;54819;48.030;14.710;2022-10-16T03:10:10;11.27;91.56
68026;SHT31;54819;48.030;14.710;2022-10-16T03:12:37;11.21;91.40
68026;SHT31;54819;48.030;14.710;2022-10-16T03:15:04;11.16;91.49
68026;SHT31;54819;48.030;14.710;2022-10-16T03:17:33;11.13;91.69
68026;SHT31;54819;48.030;14.710;2022-10-16T03:20:00;11.14;91.75
68026;SHT31;54819;48.030;14.710;2022-10-16T03:22:27;11.14;91.77
68026;SHT31;54819;48.030;14.710;2022-10-16T03:24:54;11.15;91.71
68026;SHT31;54819;48.030;14.710;2022-10-16T03:27:21;11.15;91.70
68026;SHT31;54819;48.030;14.710;2022-10-16T03:29:47;11.11;91.74
68026;SHT31;54819;48.030;14.710;2022-10-16T03:32:14;11.09;91.71
68026;SHT31;54819;48.030;14.710;2022-10-16T03:34:41;11.05;91.70
68026;SHT31;54819;48.030;14.710;2022-10-16T03:37:08;10.99;91.65
68026;SHT31;54819;48.030;14.710;2022-10-16T03:39:35;10.93;91.64
68026;SHT31;54819;48.030;14.710;2022-10-16T03:42:01;10.90;91.59
68026;SHT31;54819;48.030;14.710;2022-10-16T03:44:29;10.84;91.53
68026;SHT31;54819;48.030;14.710;2022-10-16T03:46:55;10.82;91.65
68026;SHT31;54819;48.030;14.710;2022-10-16T03:49:22;10.72;92.06
68026;SHT31;54819;48.030;14.710;2022-10-16T03:51:49;10.73;91.97
68026;SHT31;54819;48.030;14.710;2022-10-16T03:54:16;10.77;91.90
68026;SHT31;54819;48.030;14.710;2022-10-16T03:56:43;10.81;91.79
68026;SHT31;54819;48.030;14.710;2022-10-16T03:59:10;10.84;91.70
68026;SHT31;54819;48.030;14.710;2022-10-16T04:01:36;10.87;91.68
68026;SHT31;54819;48.030;14.710;2022-10-16T04:04:03;10.90;91.61
68026;SHT31;54819;48.030;14.710;2022-10-16T04:06:30;10.91;91.60
68026;SHT31;54819;48.030;14.710;2022-10-16T04:08:57;10.93;91.49
68026;SHT31;54819;48.030;14.710;2022-10-16T04:11:24;10.93;91.44
68026;SHT31;54819;48.030;14.710;2022-10-16T04:13:51;10.96;91.40
68026;SHT31;54819;48.030;14.710;2022-10-16T04:16:18;10.98;91.37
68026;SHT31;54819;48.030;14.710;2022-10-16T04:18:45;10.98;91.36
68026;SHT31;54819;48.030;14.710;2022-10-16T04:21:12;10.98;91.37
68026;SHT31;54819;48.030;14.710;2022-10-16T04:23:39;10.93;91.32
68026;SHT31;54819;48.030;14.710;2022-10-16T04:26:06;10.84;91.56
68026;SHT31;54819;48.030;14.710;2022-10-16T04:28:33;10.74;91.82
68026;SHT31;54819;48.030;14.710;2022-10-16T04:31:00;10.74;91.63
68026;SHT31;54819;48.030;14.710;2022-10-16T04:33:31;10.62;91.89
68026;SHT31;54819;48.030;14.710;2022-10-16T04:35:58;10.53;91.98
68026;SHT31;54819;48.030;14.710;2022-10-16T04:38:27;10.47;92.03
68026;SHT31;54819;48.030;14.710;2022-10-16T04:40:55;10.46;92.07
68026;SHT31;54819;48.030;14.710;2022-10-16T04:43:22;10.46;92.08
68026;SHT31;54819;48.030;14.710;2022-10-16T04:45:50;10.47;92.05
68026;SHT31;54819;48.030;14.710;2022-10-16T04:48:17;10.48;92.09
68026;SHT31;54819;48.030;14.710;2022-10-16T04:50:44;10.51;92.02
68026;SHT31;54819;48.030;14.710;2022-10-16T04:53:19;10.50;92.17
68026;SHT31;54819;48.030;14.710;2022-10-16T04:55:46;10.52;92.06
68026;SHT31;54819;48.030;14.710;2022-10-16T04:58:13;10.55;92.02
68026;SHT31;54819;48.030;14.710;2022-10-16T05:00:40;10.58;92.00
68026;SHT31;54819;48.030;14.710;2022-10-16T05:03:07;10.60;91.91
68026;SHT31;54819;48.030;14.710;2022-10-16T05:05:35;10.61;91.78
68026;SHT31;54819;48.030;14.710;2022-10-16T05:08:03;10.60;91.59
68026;SHT31;54819;48.030;14.710;2022-10-16T05:10:30;10.57;91.49
68026;SHT31;54819;48.030;14.710;2022-10-16T05:12:57;10.55;91.45
68026;SHT31;54819;48.030;14.710;2022-10-16T05:15:24;10.52;91.42
68026;SHT31;54819;48.030;14.710;2022-10-16T05:17:52;10.52;91.44
68026;SHT31;54819;48.030;14.710;2022-10-16T05:20:21;10.50;91.48
68026;SHT31;54819;48.030;14.710;2022-10-16T05:22:49;10.48;91.65
68026;SHT31;54819;48.030;14.710;2022-10-16T05:25:16;10.50;91.86
68026;SHT31;54819;48.030;14.710;2022-10-16T05:27:46;10.47;92.38
68026;SHT31;54819;48.030;14.710;2022-10-16T05:30:15;10.43;92.53
68026;SHT31;54819;48.030;14.710;2022-10-16T05:32:47;10.49;92.30
68026;SHT31;54819;48.030;14.710;2022-10-16T05:35:17;10.51;92.10
68026;SHT31;54819;48.030;14.710;2022-10-16T05:37:45;10.40;92.74
68026;SHT31;54819;48.030;14.710;2022-10-16T05:40:13;10.37;93.14
68026;SHT31;54819;48.030;14.710;2022-10-16T05:42:41;10.38;92.51
68026;SHT31;54819;48.030;14.710;2022-10-16T05:45:09;10.38;92.06
68026;SHT31;54819;48.030;14.710;2022-10-16T05:47:38;10.36;92.02
68026;SHT31;54819;48.030;14.710;2022-10-16T05:50:06;10.37;92.04
68026;SHT31;54819;48.030;14.710;2022-10-16T05:52:34;10.29;92.71
68026;SHT31;54819;48.030;14.710;2022-10-16T05:55:00;10.30;92.94
68026;SHT31;54819;48.030;14.710;2022-10-16T05:57:27;10.32;93.03
68026;SHT31;54819;48.030;14.710;2022-10-16T05:59:54;10.34;92.68
68026;SHT31;54819;48.030;14.710;2022-10-16T06:02:22;10.38;92.21
68026;SHT31;54819;48.030;14.710;2022-10-16T06:04:49;10.35;92.12
68026;SHT31;54819;48.030;14.710;2022-10-16T06:07:20;10.36;92.26
68026;SHT31;54819;48.030;14.710;2022-10-16T06:09:49;10.38;92.32
68026;SHT31;54819;48.030;14.710;2022-10-16T06:12:17;10.44;92.33
68026;SHT31;54819;48.030;14.710;2022-10-16T06:14:45;10.49;92.31
68026;SHT31;54819;48.030;14.710;2022-10-16T06:17:15;10.59;92.36
68026;SHT31;54819;48.030;14.710;2022-10-16T06:19:42;10.68;92.27
68026;SHT31;54819;48.030;14.710;2022-10-16T06:22:09;10.81;92.19
68026;SHT31;54819;48.030;14.710;2022-10-16T06:24:36;10.90;91.95
68026;SHT31;54819;48.030;14.710;2022-10-16T06:27:03;10.98;91.91
68026;SHT31;54819;48.030;14.710;2022-10-16T06:29:31;11.06;91.87
68026;SHT31;54819;48.030;14.710;2022-10-16T06:31:57;11.11;91.80
68026;SHT31;54819;48.030;14.710;2022-10-16T06:34:24;11.20;91.75
68026;SHT31;54819;48.030;14.710;2022-10-16T06:36:51;11.28;91.70
68026;SHT31;54819;48.030;14.710;2022-10-16T06:39:18;11.37;91.61
68026;SHT31;54819;48.030;14.710;2022-10-16T06:41:45;11.47;91.59
68026;SHT31;54819;48.030;14.710;2022-10-16T06:44:14;11.54;91.50
68026;SHT31;54819;48.030;14.710;2022-10-16T06:46:41;11.58;91.50
68026;SHT31;54819;48.030;14.710;2022-10-16T06:49:08;11.62;91.54
68026;SHT31;54819;48.030;14.710;2022-10-16T06:51:35;11.68;91.46
68026;SHT31;54819;48.030;14.710;2022-10-16T06:54:09;11.77;91.43
68026;SHT31;54819;48.030;14.710;2022-10-16T06:56:36;11.84;91.43
68026;SHT31;54819;48.030;14.710;2022-10-16T06:59:03;11.91;91.39
68026;SHT31;54819;48.030;14.710;2022-10-16T07:01:31;11.96;91.19
68026;SHT31;54819;48.030;14.710;2022-10-16T07:03:59;12.02;91.39
68026;SHT31;54819;48.030;14.710;2022-10-16T07:06:30;12.10;91.66
68026;SHT31;54819;48.030;14.710;2022-10-16T07:09:01;12.17;91.35
68026;SHT31;54819;48.030;14.710;2022-10-16T07:11:33;12.21;91.24
68026;SHT31;54819;48.030;14.710;2022-10-16T07:14:02;12.29;91.13
68026;SHT31;54819;48.030;14.710;2022-10-16T07:16:31;12.33;91.16
68026;SHT31;54819;48.030;14.710;2022-10-16T07:18:59;12.34;91.56
68026;SHT31;54819;48.030;14.710;2022-10-16T07:21:29;12.39;91.59
68026;SHT31;54819;48.030;14.710;2022-10-16T07:24:04;12.50;91.23
68026;SHT31;54819;48.030;14.710;2022-10-16T07:26:34;12.56;91.36
68026;SHT31;54819;48.030;14.710;2022-10-16T07:29:03;12.64;91.46
68026;SHT31;54819;48.030;14.710;2022-10-16T07:31:30;12.77;91.42
68026;SHT31;54819;48.030;14.710;2022-10-16T07:33:58;12.89;91.29
68026;SHT31;54819;48.030;14.710;2022-10-16T07:36:26;12.99;91.35
68026;SHT31;54819;48.030;14.710;2022-10-16T07:38:53;13.11;91.03
68026;SHT31;54819;48.030;14.710;2022-10-16T07:41:25;13.19;91.04
68026;SHT31;54819;48.030;14.710;2022-10-16T07:43:54;13.30;91.08
68026;SHT31;54819;48.030;14.710;2022-10-16T07:46:26;13.38;91.47
68026;SHT31;54819;48.030;14.710;2022-10-16T07:48:54;13.47;90.90
68026;SHT31;54819;48.030;14.710;2022-10-16T07:51:22;13.59;90.84
68026;SHT31;54819;48.030;14.710;2022-10-16T07:53:51;13.68;90.79
68026;SHT31;54819;48.030;14.710;2022-10-16T07:56:19;13.78;90.64
68026;SHT31;54819;48.030;14.710;2022-10-16T07:58:47;13.90;90.61
68026;SHT31;54819;48.030;14.710;2022-10-16T08:01:15;13.99;91.01
68026;SHT31;54819;48.030;14.710;2022-10-16T08:03:45;14.10;90.75
68026;SHT31;54819;48.030;14.710;2022-10-16T08:06:15;14.25;90.56
68026;SHT31;54819;48.030;14.710;2022-10-16T08:08:49;14.37;90.65
68026;SHT31;54819;48.030;14.710;2022-10-16T08:11:16;14.50;90.36
68026;SHT31;54819;48.030;14.710;2022-10-16T08:13:43;14.67;90.31
68026;SHT31;54819;48.030;14.710;2022-10-16T08:16:10;14.81;89.76
68026;SHT31;54819;48.030;14.710;2022-10-16T08:18:38;14.89;89.77
68026;SHT31;54819;48.030;14.710;2022-10-16T08:21:07;14.98;89.75
68026;SHT31;54819;48.030;14.710;2022-10-16T08:23:47;15.08;89.53
68026;SHT31;54819;48.030;14.710;2022-10-16T08:26:24;15.22;89.43
68026;SHT31;54819;48.030;14.710;2022-10-16T08:28:52;15.35;89.39
68026;SHT31;54819;48.030;14.710;2022-10-16T08:31:20;15.48;89.47
68026;SHT31;54819;48.030;14.710;2022-10-16T08:33:47;15.60;89.51
68026;SHT31;54819;48.030;14.710;2022-10-16T08:36:15;15.72;89.15
68026;SHT31;54819;48.030;14.710;2022-10-16T08:38:43;15.83;88.96
68026;SHT31;54819;48.030;14.710;2022-10-16T08:41:17;15.93;88.61
68026;SHT31;54819;48.030;14.710;2022-10-16T08:49:35;16.27;88.07
68026;SHT31;54819;48.030;14.710;2022-10-16T08:52:04;16.34;87.57
68026;SHT31;54819;48.030;14.710;2022-10-16T08:54:39;16.35;87.29
68026;SHT31;54819;48.030;14.710;2022-10-16T08:57:13;16.40;86.92
68026;SHT31;54819;48.030;14.710;2022-10-16T08:59:49;16.47;86.96
68026;SHT31;54819;48.030;14.710;2022-10-16T09:16:22;16.86;85.38
68026;SHT31;54819;48.030;14.710;2022-10-16T09:22:14;16.98;84.79
68026;SHT31;54819;48.030;14.710;2022-10-16T09:24:44;17.02;84.61
68026;SHT31;54819;48.030;14.710;2022-10-16T09:27:12;17.07;83.90
68026;SHT31;54819;48.030;14.710;2022-10-16T09:29:41;17.12;83.71
68026;SHT31;54819;48.030;14.710;2022-10-16T09:32:12;17.17;83.21
68026;SHT31;54819;48.030;14.710;2022-10-16T09:34:48;17.24;83.10
68026;SHT31;54819;48.030;14.710;2022-10-16T09:37:21;17.31;83.37
68026;SHT31;54819;48.030;14.710;2022-10-16T09:39:54;17.38;83.13
68026;SHT31;54819;48.030;14.710;2022-10-16T09:42:31;17.46;83.20
68026;SHT31;54819;48.030;14.710;2022-10-16T09:45:03;17.55;82.38
68026;SHT31;54819;48.030;14.710;2022-10-16T09:47:31;17.64;81.61
68026;SHT31;54819;48.030;14.710;2022-10-16T09:50:03;17.71;81.36
68026;SHT31;54819;48.030;14.710;2022-10-16T09:52:48;17.81;81.66
68026;SHT31;54819;48.030;14.710;2022-10-16T09:55:16;17.90;81.19
68026;SHT31;54819;48.030;14.710;2022-10-16T09:57:48;17.97;80.89
68026;SHT31;54819;48.030;14.710;2022-10-16T10:00:22;18.04;80.82
68026;SHT31;54819;48.030;14.710;2022-10-16T10:02:50;18.09;80.56
68026;SHT31;54819;48.030;14.710;2022-10-16T10:05:25;18.18;80.18
68026;SHT31;54819;48.030;14.710;2022-10-16T10:07:56;18.26;79.84
68026;SHT31;54819;48.030;14.710;2022-10-16T10:10:30;18.33;79.14
68026;SHT31;54819;48.030;14.710;2022-10-16T10:12:59;18.41;78.68
68026;SHT31;54819;48.030;14.710;2022-10-16T10:15:28;18.51;79.16
68026;SHT31;54819;48.030;14.710;2022-10-16T10:18:02;18.60;79.05
68026;SHT31;54819;48.030;14.710;2022-10-16T10:21:02;18.72;79.07
68026;SHT31;54819;48.030;14.710;2022-10-16T10:23:32;18.78;78.09
68026;SHT31;54819;48.030;14.710;2022-10-16T10:26:01;18.83;78.09
68026;SHT31;54819;48.030;14.710;2022-10-16T10:50:38;19.43;76.57
68026;SHT31;54819;48.030;14.710;2022-10-16T10:53:30;19.47;76.43
68026;SHT31;54819;48.030;14.710;2022-10-16T10:59:19;19.55;75.58
68026;SHT31;54819;48.030;14.710;2022-10-16T11:08:32;19.65;74.51
68026;SHT31;54819;48.030;14.710;2022-10-16T11:11:40;19.69;75.11
68026;SHT31;54819;48.030;14.710;2022-10-16T11:14:18;19.76;75.36
68026;SHT31;54819;48.030;14.710;2022-10-16T11:16:52;19.79;75.05
68026;SHT31;54819;48.030;14.710;2022-10-16T11:22:44;19.81;74.16
68026;SHT31;54819;48.030;14.710;2022-10-16T11:25:22;19.82;74.41
68026;SHT31;54819;48.030;14.710;2022-10-16T11:28:03;19.86;74.18
68026;SHT31;54819;48.030;14.710;2022-10-16T11:31:00;19.87;74.50
68026;SHT31;54819;48.030;14.710;2022-10-16T11:33:38;19.92;73.94
68026;SHT31;54819;48.030;14.710;2022-10-16T11:36:44;20.00;73.45
68026;SHT31;54819;48.030;14.710;2022-10-16T11:39:36;20.10;73.82
68026;SHT31;54819;48.030;14.710;2022-10-16T11:42:10;20.19;74.35
68026;SHT31;54819;48.030;14.710;2022-10-16T11:47:44;20.33;73.86
68026;SHT31;54819;48.030;14.710;2022-10-16T11:55:59;20.64;73.07
68026;SHT31;54819;48.030;14.710;2022-10-16T12:03:59;20.84;73.65
68026;SHT31;54819;48.030;14.710;2022-10-16T12:06:48;20.88;74.01
68026;SHT31;54819;48.030;14.710;2022-10-16T12:09:26;20.94;74.33
68026;SHT31;54819;48.030;14.710;2022-10-16T12:11:58;20.98;73.74
68026;SHT31;54819;48.030;14.710;2022-10-16T12:16:59;21.05;73.53
68026;SHT31;54819;48.030;14.710;2022-10-16T12:19:28;21.10;73.27
68026;SHT31;54819;48.030;14.710;2022-10-16T12:21:57;21.13;71.07
68026;SHT31;54819;48.030;14.710;2022-10-16T12:24:31;21.15;70.68
68026;SHT31;54819;48.030;14.710;2022-10-16T12:27:03;21.20;70.07
68026;SHT31;54819;48.030;14.710;2022-10-16T12:29:46;21.24;69.52
68026;SHT31;54819;48.030;14.710;2022-10-16T12:32:26;21.25;69.87
68026;SHT31;54819;48.030;14.710;2022-10-16T12:35:17;21.22;69.95
68026;SHT31;54819;48.030;14.710;2022-10-16T12:38:03;21.18;70.49
68026;SHT31;54819;48.030;14.710;2022-10-16T12:40:46;21.16;71.04
68026;SHT31;54819;48.030;14.710;2022-10-16T12:43:39;21.22;71.04
68026;SHT31;54819;48.030;14.710;2022-10-16T12:48:42;21.31;71.77
68026;SHT31;54819;48.030;14.710;2022-10-16T12:57:20;21.35;73.48
68026;SHT31;54819;48.030;14.710;2022-10-16T13:06:00;21.49;73.54
68026;SHT31;54819;48.030;14.710;2022-10-16T13:14:38;21.49;72.93
68026;SHT31;54819;48.030;14.710;2022-10-16T13:26:21;21.51;71.56
68026;SHT31;54819;48.030;14.710;2022-10-16T13:28:53;21.50;71.51
68026;SHT31;54819;48.030;14.710;2022-10-16T13:31:21;21.51;71.51
68026;SHT31;54819;48.030;14.710;2022-10-16T13:33:52;21.48;71.85
68026;SHT31;54819;48.030;14.710;2022-10-16T13:36:26;21.49;71.99
68026;SHT31;54819;48.030;14.710;2022-10-16T13:39:13;21.46;71.58
68026;SHT31;54819;48.030;14.710;2022-10-16T13:42:13;21.41;71.98
68026;SHT31;54819;48.030;14.710;2022-10-16T13:44:54;21.41;72.96
68026;SHT31;54819;48.030;14.710;2022-10-16T13:47:24;21.45;72.96
68026;SHT31;54819;48.030;14.710;2022-10-16T13:49:59;21.48;72.70
68026;SHT31;54819;48.030;14.710;2022-10-16T13:52:28;21.47;72.56
68026;SHT31;54819;48.030;14.710;2022-10-16T13:54:55;21.44;72.54
68026;SHT31;54819;48.030;14.710;2022-10-16T13:57:27;21.41;72.67
68026;SHT31;54819;48.030;14.710;2022-10-16T13:59:55;21.35;72.96
68026;SHT31;54819;48.030;14.710;2022-10-16T14:02:25;21.34;73.58
68026;SHT31;54819;48.030;14.710;2022-10-16T14:05:03;21.35;74.02
68026;SHT31;54819;48.030;14.710;2022-10-16T14:07:36;21.39;74.24
68026;SHT31;54819;48.030;14.710;2022-10-16T14:10:05;21.42;73.95
68026;SHT31;54819;48.030;14.710;2022-10-16T14:12:59;21.41;73.97
68026;SHT31;54819;48.030;14.710;2022-10-16T14:15:32;21.34;74.11
68026;SHT31;54819;48.030;14.710;2022-10-16T14:18:01;21.33;74.52
68026;SHT31;54819;48.030;14.710;2022-10-16T14:20:30;21.35;74.36
68026;SHT31;54819;48.030;14.710;2022-10-16T14:23:01;21.30;74.07
68026;SHT31;54819;48.030;14.710;2022-10-16T14:25:44;21.30;74.21
68026;SHT31;54819;48.030;14.710;2022-10-16T14:28:16;21.26;73.63
68026;SHT31;54819;48.030;14.710;2022-10-16T14:30:53;21.20;73.14
68026;SHT31;54819;48.030;14.710;2022-10-16T14:36:11;21.08;73.65
68026;SHT31;54819;48.030;14.710;2022-10-16T14:41:50;21.01;74.15
68026;SHT31;54819;48.030;14.710;2022-10-16T14:44:19;20.98;74.52
68026;SHT31;54819;48.030;14.710;2022-10-16T14:46:57;20.95;74.66
68026;SHT31;54819;48.030;14.710;2022-10-16T14:49:34;20.91;74.86
68026;SHT31;54819;48.030;14.710;2022-10-16T14:52:05;20.88;74.85
68026;SHT31;54819;48.030;14.710;2022-10-16T14:54:37;20.86;75.28
68026;SHT31;54819;48.030;14.710;2022-10-16T14:57:04;20.83;75.25
68026;SHT31;54819;48.030;14.710;2022-10-16T14:59:34;20.82;75.41
68026;SHT31;54819;48.030;14.710;2022-10-16T15:02:09;20.77;75.32
68026;SHT31;54819;48.030;14.710;2022-10-16T15:04:50;20.75;75.33
68026;SHT31;54819;48.030;14.710;2022-10-16T15:07:18;20.71;75.37
68026;SHT31;54819;48.030;14.710;2022-10-16T15:09:45;20.66;75.24
68026;SHT31;54819;48.030;14.710;2022-10-16T15:12:15;20.61;74.90
68026;SHT31;54819;48.030;14.710;2022-10-16T15:14:43;20.52;75.01
68026;SHT31;54819;48.030;14.710;2022-10-16T15:17:10;20.46;74.84
68026;SHT31;54819;48.030;14.710;2022-10-16T15:19:38;20.37;74.63
68026;SHT31;54819;48.030;14.710;2022-10-16T15:22:05;20.32;74.90
68026;SHT31;54819;48.030;14.710;2022-10-16T15:24:32;20.28;74.81
68026;SHT31;54819;48.030;14.710;2022-10-16T15:26:58;20.21;74.70
68026;SHT31;54819;48.030;14.710;2022-10-16T15:29:25;20.15;74.89
68026;SHT31;54819;48.030;14.710;2022-10-16T15:31:52;20.10;74.84
68026;SHT31;54819;48.030;14.710;2022-10-16T15:34:19;20.02;74.96
68026;SHT31;54819;48.030;14.710;2022-10-16T15:36:46;19.91;74.92
68026;SHT31;54819;48.030;14.710;2022-10-16T15:39:13;19.79;75.26
68026;SHT31;54819;48.030;14.710;2022-10-16T15:41:44;19.69;75.58
68026;SHT31;54819;48.030;14.710;2022-10-16T15:44:20;19.59;75.70
68026;SHT31;54819;48.030;14.710;2022-10-16T15:46:49;19.50;75.82
68026;SHT31;54819;48.030;14.710;2022-10-16T15:49:16;19.40;75.87
68026;SHT31;54819;48.030;14.710;2022-10-16T15:51:43;19.30;76.03
68026;SHT31;54819;48.030;14.710;2022-10-16T15:54:12;19.18;76.42
68026;SHT31;54819;48.030;14.710;2022-10-16T15:56:39;19.11;76.81
68026;SHT31;54819;48.030;14.710;2022-10-16T15:59:06;19.02;77.20
68026;SHT31;54819;48.030;14.710;2022-10-16T16:01:34;18.93;77.40
68026;SHT31;54819;48.030;14.710;2022-10-16T16:04:02;18.84;77.79
68026;SHT31;54819;48.030;14.710;2022-10-16T16:06:40;18.76;78.09
68026;SHT31;54819;48.030;14.710;2022-10-16T16:09:11;18.65;78.36
68026;SHT31;54819;48.030;14.710;2022-10-16T16:11:40;18.54;78.58
68026;SHT31;54819;48.030;14.710;2022-10-16T16:14:12;18.44;78.84
68026;SHT31;54819;48.030;14.710;2022-10-16T16:16:41;18.33;79.12
68026;SHT31;54819;48.030;14.710;2022-10-16T16:19:09;18.23;79.33
68026;SHT31;54819;48.030;14.710;2022-10-16T16:21:37;18.16;79.57
68026;SHT31;54819;48.030;14.710;2022-10-16T16:24:05;18.05;79.84
68026;SHT31;54819;48.030;14.710;2022-10-16T16:26:35;17.92;80.40
68026;SHT31;54819;48.030;14.710;2022-10-16T16:29:06;17.82;80.67
68026;SHT31;54819;48.030;14.710;2022-10-16T16:31:34;17.73;80.74
68026;SHT31;54819;48.030;14.710;2022-10-16T16:34:01;17.64;81.07
68026;SHT31;54819;48.030;14.710;2022-10-16T16:36:29;17.60;80.89
68026;SHT31;54819;48.030;14.710;2022-10-16T16:38:56;17.55;81.08
68026;SHT31;54819;48.030;14.710;2022-10-16T16:41:24;17.49;81.40
68026;SHT31;54819;48.030;14.710;2022-10-16T16:43:54;17.43;81.46
68026;SHT31;54819;48.030;14.710;2022-10-16T16:46:22;17.37;81.49
68026;SHT31;54819;48.030;14.710;2022-10-16T16:48:49;17.26;81.69
68026;SHT31;54819;48.030;14.710;2022-10-16T16:51:17;17.14;82.31
68026;SHT31;54819;48.030;14.710;2022-10-16T16:53:47;17.04;82.36
68026;SHT31;54819;48.030;14.710;2022-10-16T16:56:16;17.00;82.38
68026;SHT31;54819;48.030;14.710;2022-10-16T16:58:46;16.97;82.48
68026;SHT31;54819;48.030;14.710;2022-10-16T17:01:15;16.91;82.56
68026;SHT31;54819;48.030;14.710;2022-10-16T17:03:46;16.85;83.15
68026;SHT31;54819;48.030;14.710;2022-10-16T17:06:17;16.78;82.87
68026;SHT31;54819;48.030;14.710;2022-10-16T17:08:50;16.73;82.84
68026;SHT31;54819;48.030;14.710;2022-10-16T17:11:19;16.67;82.77
68026;SHT31;54819;48.030;14.710;2022-10-16T17:13:50;16.63;82.84
68026;SHT31;54819;48.030;14.710;2022-10-16T17:16:26;16.54;84.31
68026;SHT31;54819;48.030;14.710;2022-10-16T17:19:01;16.42;84.34
68026;SHT31;54819;48.030;14.710;2022-10-16T17:21:31;16.39;83.77
68026;SHT31;54819;48.030;14.710;2022-10-16T17:23:59;16.32;83.85
68026;SHT31;54819;48.030;14.710;2022-10-16T17:26:27;16.25;83.85
68026;SHT31;54819;48.030;14.710;2022-10-16T17:28:55;16.18;84.04
68026;SHT31;54819;48.030;14.710;2022-10-16T17:31:25;16.08;84.52
68026;SHT31;54819;48.030;14.710;2022-10-16T17:33:59;16.02;84.38
68026;SHT31;54819;48.030;14.710;2022-10-16T17:36:27;15.98;84.41
68026;SHT31;54819;48.030;14.710;2022-10-16T17:39:03;15.95;84.61
68026;SHT31;54819;48.030;14.710;2022-10-16T17:41:34;15.89;84.94
68026;SHT31;54819;48.030;14.710;2022-10-16T17:44:02;15.82;85.28
68026;SHT31;54819;48.030;14.710;2022-10-16T17:46:31;15.77;85.29